Main page
Satellite images 15-day forecastsClimateMarine weather Cyclones Lightning AirportsFAQ Newsletter About
Weather : Europe Africa North America South America Asia Australia-Oceania Others
Languages Contact

Longyearbyen, Norway

Svalbard

latitude: 78-15N, longitude: 015-28E, elevation: 2 m


METAR: ENSB 310450Z 14006KT 9999 FEW022 M06/M11 Q1018 RMK WIND 1400FT VRB02KT
TAF: ENSB 3103/0103 14005KT 9999 FEW020 BKN035

Time: 06:19 (05:19 UTC)

Current weather observation

The report was made 29 minutes ago, at 04:50 UTC
Wind 6 kt from the Southeast
Temperature -6°C
Humidity 68%
Pressure 1018 hPa
Visibility 10 km or more
Few clouds at a height of 2200 ft

Change units

Forecast

Forecast valid from 31 at 03 UTC to 01 at 03 UTC
Wind 5 kt from the Southeast
Visibility 10 km or more
Few clouds at a height of 2000 ft
Broken clouds at a height of 3500 ft
The information on this site is subject to a disclaimer
Weather : Europe Africa North America South America Asia Australia-Oceania Others
Satellite images 15-day forecastsClimateMarine weather Cyclones Lightning AirportsFAQ Languages Contact Newsletter About